Maersk Essen — V7UQ8 — position and weather

sailwx.info

Track history (hours):
 
Tides and Currents Weather Stations Pressure Air Temp Water Temp Dewpoint Dewpoint Depression Visibility Wind Speed Wind Dir Waves Ship Positions

Maersk Essen

Last reported at 2016-Jun-17 10:34 UTC. Time now 2016-Jun-25 08:54 UTC.
Position N 35°38' E 141°53'.

Length 367 m; draft 12.9 m.

Type: Ship (hazmat cat A). MMSI: 538004007.

Date/timePositionNaut miles runAvg speedWind from/ knotsBaromVisibWave heightAir tempDewpointWater temp
2016-Jun-17 10:34N 35°38' E 141°53'4318.4
2016-Jun-17 08:14N 35°18' E 141°06'1918.4
2016-Jun-17 07:12N 35°09' E 140°46'1318.5
2016-Jun-17 06:29N 35°02' E 140°32'1718.5
2016-Jun-17 05:34N 34°54' E 140°14'2018.3
2016-Jun-17 04:29N 34°46' E 139°52'  
2016-Jun-14 13:33N 24°29' E 119°08'5016.7
2016-Jun-14 10:34N 24°15' E 118°15'1111.4
2016-Jun-14 09:33N 24°23' E 118°07'6 6.2
2016-Jun-14 08:31N 24°27' E 118°01'0 0.0
2016-Jun-14 07:31N 24°27' E 118°01'0 0.0
2016-Jun-14 05:31N 24°27' E 118°01'0 0.0
2016-Jun-14 04:31N 24°27' E 118°01'0 0.0
2016-Jun-14 03:28N 24°27' E 118°01'0 0.0
2016-Jun-14 02:31N 24°27' E 118°01'0 0.0
2016-Jun-14 01:31N 24°27' E 118°01'0 0.0
2016-Jun-14 00:31N 24°27' E 118°01'0 0.0
2016-Jun-13 23:28N 24°27' E 118°01'0 0.0
2016-Jun-13 22:31N 24°27' E 118°01'0 0.0
2016-Jun-13 21:28N 24°27' E 118°01'0 0.0
2016-Jun-13 20:31N 24°27' E 118°01'0 0.0
2016-Jun-13 19:28N 24°27' E 118°01'0 0.0
2016-Jun-13 18:31N 24°27' E 118°01'0 0.0
2016-Jun-13 17:31N 24°27' E 118°01'0 0.0
2016-Jun-13 16:31N 24°27' E 118°01'0 0.0
2016-Jun-13 15:31N 24°27' E 118°01'0 0.0
2016-Jun-13 14:28N 24°27' E 118°01'0 0.0
2016-Jun-13 13:31N 24°27' E 118°01'0 0.1
2016-Jun-13 12:31N 24°27' E 118°01'0 0.1
2016-Jun-13 11:33N 24°27' E 118°01'9 8.7
2016-Jun-13 10:33N 24°22' E 118°09'9 8.7
2016-Jun-13 09:33N 24°15' E 118°15'9 9.1
2016-Jun-13 08:33N 24°06' E 118°19'23414.3
2016-Jun-12 16:10N 22°21' E 114°31'2 0.1
2016-Jun-11 12:12N 22°23' E 114°29'914.7
2016-Jun-11 11:33N 22°14' E 114°28'2110.6
2016-Jun-11 09:33N 22°19' E 114°06'1 1.3
2016-Jun-11 08:33N 22°20' E 114°07'0 0.0
2016-Jun-11 07:33N 22°20' E 114°07'0 0.0
2016-Jun-11 06:24N 22°20' E 114°07'0 0.0
2016-Jun-11 05:24N 22°20' E 114°07'0 0.0
2016-Jun-11 04:18N 22°20' E 114°07'0 0.0
2016-Jun-11 01:24N 22°20' E 114°07'0 0.0
2016-Jun-11 00:24N 22°20' E 114°07'0 0.0
2016-Jun-10 22:21N 22°20' E 114°07'0 0.0
2016-Jun-10 21:18N 22°20' E 114°07'0 0.0
2016-Jun-10 19:18N 22°20' E 114°07'0 0.0
2016-Jun-10 18:33N 22°20' E 114°07'0 0.0
2016-Jun-10 17:30N 22°20' E 114°07'0 0.0
2016-Jun-10 16:30N 22°20' E 114°07'0 0.0
2016-Jun-10 15:27N 22°20' E 114°07'0 0.0
2016-Jun-10 14:30N 22°20' E 114°07'2 1.7
2016-Jun-10 13:34N 22°19' E 114°06'13 9.8
2016-Jun-10 12:14N 22°09' E 114°15'811.1
2016-Jun-10 11:32N 22°08' E 114°23'30 7.4
2016-Jun-10 07:30N 22°07' E 113°51'1111.7
2016-Jun-10 06:33N 22°18' E 113°48'7 0.4
2016-Jun-09 11:33N 22°25' E 113°45'1414.3
2016-Jun-09 10:33N 22°12' E 113°50'  
Track history (hours):
 
Tides and Currents Weather Stations Pressure Air Temp Water Temp Dewpoint Dewpoint Depression Visibility Wind Speed Wind Dir Waves Ship Positions

Maersk Essen

Last reported at 2016-Jun-17 10:34 UTC. Time now 2016-Jun-25 08:54 UTC.
Position N 35°38' E 141°53'.

Length 367 m; draft 12.9 m.

Type: Ship (hazmat cat A). MMSI: 538004007.

Date/timePositionNaut miles runAvg speedWind from/ knotsBaromVisibWave heightAir tempDewpointWater temp
2016-Jun-17 10:34N 35°38' E 141°53'4318.4
2016-Jun-17 08:14N 35°18' E 141°06'1918.4
2016-Jun-17 07:12N 35°09' E 140°46'1318.5
2016-Jun-17 06:29N 35°02' E 140°32'1718.5
2016-Jun-17 05:34N 34°54' E 140°14'2018.3
2016-Jun-17 04:29N 34°46' E 139°52'  
2016-Jun-14 13:33N 24°29' E 119°08'5016.7
2016-Jun-14 10:34N 24°15' E 118°15'1111.4
2016-Jun-14 09:33N 24°23' E 118°07'6 6.2
2016-Jun-14 08:31N 24°27' E 118°01'0 0.0
2016-Jun-14 07:31N 24°27' E 118°01'0 0.0
2016-Jun-14 05:31N 24°27' E 118°01'0 0.0
2016-Jun-14 04:31N 24°27' E 118°01'0 0.0
2016-Jun-14 03:28N 24°27' E 118°01'0 0.0
2016-Jun-14 02:31N 24°27' E 118°01'0 0.0
2016-Jun-14 01:31N 24°27' E 118°01'0 0.0
2016-Jun-14 00:31N 24°27' E 118°01'0 0.0
2016-Jun-13 23:28N 24°27' E 118°01'0 0.0
2016-Jun-13 22:31N 24°27' E 118°01'0 0.0
2016-Jun-13 21:28N 24°27' E 118°01'0 0.0
2016-Jun-13 20:31N 24°27' E 118°01'0 0.0
2016-Jun-13 19:28N 24°27' E 118°01'0 0.0
2016-Jun-13 18:31N 24°27' E 118°01'0 0.0
2016-Jun-13 17:31N 24°27' E 118°01'0 0.0
2016-Jun-13 16:31N 24°27' E 118°01'0 0.0
2016-Jun-13 15:31N 24°27' E 118°01'0 0.0
2016-Jun-13 14:28N 24°27' E 118°01'0 0.0
2016-Jun-13 13:31N 24°27' E 118°01'0 0.1
2016-Jun-13 12:31N 24°27' E 118°01'0 0.1
2016-Jun-13 11:33N 24°27' E 118°01'9 8.7
2016-Jun-13 10:33N 24°22' E 118°09'9 8.7
2016-Jun-13 09:33N 24°15' E 118°15'9 9.1
2016-Jun-13 08:33N 24°06' E 118°19'23414.3
2016-Jun-12 16:10N 22°21' E 114°31'2 0.1
2016-Jun-11 12:12N 22°23' E 114°29'914.7
2016-Jun-11 11:33N 22°14' E 114°28'2110.6
2016-Jun-11 09:33N 22°19' E 114°06'1 1.3
2016-Jun-11 08:33N 22°20' E 114°07'0 0.0
2016-Jun-11 07:33N 22°20' E 114°07'0 0.0
2016-Jun-11 06:24N 22°20' E 114°07'0 0.0
2016-Jun-11 05:24N 22°20' E 114°07'0 0.0
2016-Jun-11 04:18N 22°20' E 114°07'0 0.0
2016-Jun-11 01:24N 22°20' E 114°07'0 0.0
2016-Jun-11 00:24N 22°20' E 114°07'0 0.0
2016-Jun-10 22:21N 22°20' E 114°07'0 0.0
2016-Jun-10 21:18N 22°20' E 114°07'0 0.0
2016-Jun-10 19:18N 22°20' E 114°07'0 0.0
2016-Jun-10 18:33N 22°20' E 114°07'0 0.0
2016-Jun-10 17:30N 22°20' E 114°07'0 0.0
2016-Jun-10 16:30N 22°20' E 114°07'0 0.0
2016-Jun-10 15:27N 22°20' E 114°07'0 0.0
2016-Jun-10 14:30N 22°20' E 114°07'2 1.7
2016-Jun-10 13:34N 22°19' E 114°06'13 9.8
2016-Jun-10 12:14N 22°09' E 114°15'811.1
2016-Jun-10 11:32N 22°08' E 114°23'30 7.4
2016-Jun-10 07:30N 22°07' E 113°51'1111.7
2016-Jun-10 06:33N 22°18' E 113°48'7 0.4
2016-Jun-09 11:33N 22°25' E 113°45'1414.3
2016-Jun-09 10:33N 22°12' E 113°50'  

Dump ship's entire track history